Time;durP1;ratioP1;P1;durP2;ratioP2;P2;SDS_P1;SDS_P2;PMS_P1;PMS_P2;Temp;Humidity;BMP_temperature;BMP_pressure;BME280_temperature;BME280_humidity;BME280_pressure;Samples;Min_cycle;Max_cycle;Signal;HPM_P1;HPM_P2
2021/06/13 00:00:51;;;;;;;3.13;2.03;;;;;;;13.20;83.86;99270.66;4988238;28;20031;-65
2021/06/13 00:03:16;;;;;;;2.80;1.80;;;;;;;13.12;84.77;99269.94;4993247;28;20081;-65
2021/06/13 00:05:42;;;;;;;2.28;2.03;;;;;;;13.26;84.58;99271.44;5018400;28;20229;-65
2021/06/13 00:08:07;;;;;;;2.33;2.10;;;;;;;13.21;84.77;99270.63;5023589;28;20025;-65
2021/06/13 00:10:32;;;;;;;1.77;1.63;;;;;;;13.17;84.17;99268.09;5011937;28;20034;-65
2021/06/13 00:12:58;;;;;;;1.95;1.85;;;;;;;13.11;84.75;99265.56;5007671;28;20027;-65
2021/06/13 00:15:25;;;;;;;1.65;1.50;;;;;;;13.03;84.15;99258.66;5007442;28;20081;-65
2021/06/13 00:17:54;;;;;;;2.10;1.65;;;;;;;13.02;84.25;99266.59;5007446;28;20344;-65
2021/06/13 00:20:23;;;;;;;2.42;1.70;;;;;;;12.99;84.88;99267.53;5007334;28;20026;-65
2021/06/13 00:22:49;;;;;;;1.75;1.63;;;;;;;12.89;84.31;99259.78;5007353;28;20030;-65
2021/06/13 00:25:15;;;;;;;2.83;1.60;;;;;;;12.77;84.63;99266.16;5007289;28;20056;-65
2021/06/13 00:27:41;;;;;;;2.58;1.80;;;;;;;12.77;84.68;99260.88;5007452;28;20375;-65
2021/06/13 00:30:09;;;;;;;2.38;1.73;;;;;;;12.74;85.19;99270.63;5007104;28;20046;-65
2021/06/13 00:32:35;;;;;;;1.98;1.88;;;;;;;12.62;85.58;99273.47;5007053;28;20057;-65
2021/06/13 00:35:01;;;;;;;2.10;1.90;;;;;;;12.65;85.52;99276.94;5006529;28;20018;-65
2021/06/13 00:37:26;;;;;;;1.77;1.67;;;;;;;12.78;85.08;99278.47;5006817;28;20026;-65
2021/06/13 00:39:52;;;;;;;3.35;1.85;;;;;;;12.74;84.99;99276.78;5006730;28;20146;-65
2021/06/13 00:42:20;;;;;;;2.20;2.00;;;;;;;12.77;84.76;99282.00;5006969;28;20089;-65
2021/06/13 00:44:46;;;;;;;1.80;1.70;;;;;;;12.74;84.57;99287.34;5007183;28;20022;-65
2021/06/13 00:47:11;;;;;;;2.83;1.65;;;;;;;12.73;84.64;99285.63;5006880;28;20253;-65
2021/06/13 00:49:36;;;;;;;3.80;1.58;;;;;;;12.65;84.52;99282.22;5006729;28;20129;-65
2021/06/13 00:52:02;;;;;;;1.55;1.45;;;;;;;12.69;84.62;99285.69;5006798;28;20052;-65
2021/06/13 00:54:28;;;;;;;2.00;1.85;;;;;;;12.55;84.46;99285.91;5007002;28;20037;-65
2021/06/13 00:56:54;;;;;;;1.90;1.60;;;;;;;12.49;85.06;99280.75;5005593;28;20026;-65
2021/06/13 00:59:20;;;;;;;1.73;1.63;;;;;;;12.38;83.73;99287.97;5006476;28;20229;-65
2021/06/13 01:01:45;;;;;;;2.00;1.80;;;;;;;12.39;85.35;99295.00;5006570;28;20030;-65
2021/06/13 01:04:10;;;;;;;1.70;1.60;;;;;;;12.45;84.64;99284.34;5006710;28;20045;-65
2021/06/13 01:07:04;;;;;;;2.55;1.80;;;;;;;12.41;84.75;99294.97;4988156;28;20034;-65
2021/06/13 01:09:55;;;;;;;1.60;1.50;;;;;;;12.45;84.74;99289.63;4986962;28;20022;-65
2021/06/13 01:12:26;;;;;;;1.83;1.70;;;;;;;12.25;84.99;99286.41;4986932;28;20030;-65
2021/06/13 01:15:03;;;;;;;1.70;1.60;;;;;;;12.22;85.25;99291.72;4986848;28;20022;-65
2021/06/13 01:17:33;;;;;;;1.52;1.42;;;;;;;12.24;85.20;99283.78;4986880;28;20034;-65
2021/06/13 01:20:41;;;;;;;1.80;1.60;;;;;;;12.26;85.15;99293.44;4986854;28;20202;-65
2021/06/13 01:23:24;;;;;;;2.10;1.40;;;;;;;12.28;84.96;99291.63;4978877;28;20046;-65
2021/06/13 01:26:02;;;;;;;2.42;1.70;;;;;;;12.18;84.98;99295.31;4986728;28;20030;-65
2021/06/13 01:28:48;;;;;;;2.00;1.80;;;;;;;12.14;85.54;99298.91;4986679;28;20030;-64
2021/06/13 01:31:16;;;;;;;2.08;1.67;;;;;;;12.03;86.05;99290.28;4986529;28;20082;-64
2021/06/13 01:33:41;;;;;;;2.15;1.75;;;;;;;11.95;86.09;99288.63;4986529;28;20046;-64
2021/06/13 01:36:08;;;;;;;1.40;1.30;;;;;;;11.89;84.97;99292.25;5000406;28;20026;-65
2021/06/13 01:38:35;;;;;;;1.48;1.38;;;;;;;11.95;85.04;99291.28;5005955;28;20321;-65
2021/06/13 01:41:05;;;;;;;1.83;1.50;;;;;;;11.97;85.44;99289.50;5006159;28;20332;-65
2021/06/13 01:43:32;;;;;;;1.55;1.40;;;;;;;12.01;84.98;99292.06;5006134;28;20026;-65
2021/06/13 01:45:58;;;;;;;1.40;1.30;;;;;;;11.98;84.46;99302.66;5006029;28;20026;-64
2021/06/13 01:48:24;;;;;;;1.90;1.60;;;;;;;11.67;85.44;99290.78;5005690;28;20025;-64
2021/06/13 01:50:51;;;;;;;2.22;2.03;;;;;;;11.72;86.00;99293.38;5005582;28;20025;-64
2021/06/13 01:53:17;;;;;;;1.60;1.50;;;;;;;11.59;85.46;99297.03;5005628;28;20023;-64
2021/06/13 01:55:48;;;;;;;1.70;1.60;;;;;;;11.70;85.26;99293.38;5005575;28;20018;-64
2021/06/13 01:58:17;;;;;;;3.80;1.85;;;;;;;11.56;85.65;99292.66;5005364;28;20109;-64
2021/06/13 02:00:44;;;;;;;1.77;1.63;;;;;;;11.52;85.08;99290.94;5005492;28;20034;-64
2021/06/13 02:03:11;;;;;;;1.27;1.17;;;;;;;11.46;85.20;99301.59;5005395;28;20029;-64
2021/06/13 02:05:37;;;;;;;1.70;1.60;;;;;;;11.49;85.66;99301.56;4992910;28;20022;-64
2021/06/13 02:08:03;;;;;;;1.58;1.40;;;;;;;11.49;85.88;99293.66;4985584;28;20065;-64
2021/06/13 02:10:31;;;;;;;2.33;1.48;;;;;;;11.52;85.79;99295.38;4985794;28;20027;-64
2021/06/13 02:12:58;;;;;;;1.40;1.30;;;;;;;11.57;85.38;99294.41;4985805;28;20027;-64
2021/06/13 02:15:25;;;;;;;1.65;1.55;;;;;;;11.39;85.54;99294.63;4985795;28;20098;-64
2021/06/13 02:17:53;;;;;;;1.83;1.67;;;;;;;11.20;86.12;99292.25;4985724;28;20026;-64
2021/06/13 02:20:21;;;;;;;1.70;1.60;;;;;;;11.27;85.35;99281.63;4985766;28;20171;-64
2021/06/13 02:22:49;;;;;;;1.48;1.38;;;;;;;11.32;84.73;99281.56;4985662;28;20026;-64
2021/06/13 02:25:16;;;;;;;1.52;1.42;;;;;;;11.23;85.67;99282.53;4985646;28;20022;-64
2021/06/13 02:27:43;;;;;;;1.67;1.58;;;;;;;11.15;85.73;99273.84;4985552;28;20322;-64
2021/06/13 02:30:10;;;;;;;1.67;1.58;;;;;;;11.21;85.94;99284.31;4985458;28;20314;-64
2021/06/13 02:32:40;;;;;;;1.52;1.42;;;;;;;11.08;85.49;99277.44;4985761;28;20313;-64
2021/06/13 02:35:07;;;;;;;4.30;1.63;;;;;;;10.80;86.66;99286.53;4993242;28;20018;-64
2021/06/13 02:37:33;;;;;;;1.60;1.50;;;;;;;10.95;87.01;99287.22;5004636;28;20093;-64
2021/06/13 02:39:59;;;;;;;2.13;1.80;;;;;;;10.98;86.64;99287.19;5004873;28;20026;-64
2021/06/13 02:42:25;;;;;;;1.65;1.55;;;;;;;11.02;86.42;99290.69;5003683;28;20026;-64
2021/06/13 02:44:51;;;;;;;1.67;1.58;;;;;;;10.92;86.38;99295.16;5004767;28;20084;-64
2021/06/13 02:47:17;;;;;;;2.42;1.40;;;;;;;10.94;85.53;99295.16;5004662;28;20022;-64
2021/06/13 02:49:43;;;;;;;1.83;1.40;;;;;;;10.96;85.94;99293.38;5004637;28;20022;-64
2021/06/13 02:52:32;;;;;;;2.03;1.80;;;;;;;10.81;86.78;99298.78;5004617;28;20022;-64
2021/06/13 02:54:59;;;;;;;1.80;1.70;;;;;;;10.97;86.39;99295.13;5004746;28;20030;-65
2021/06/13 02:57:37;;;;;;;1.70;1.45;;;;;;;11.03;85.42;99302.97;5004645;28;20026;-65
2021/06/13 03:00:08;;;;;;;1.48;1.38;;;;;;;10.92;85.26;99307.47;5004725;28;20030;-65
2021/06/13 03:02:35;;;;;;;1.08;1.08;;;;;;;10.93;84.49;99307.47;5004525;28;20098;-64
2021/06/13 03:05:02;;;;;;;1.98;1.00;;;;;;;10.87;84.71;99304.88;4997248;28;20133;-64
2021/06/13 03:07:28;;;;;;;1.50;1.02;;;;;;;10.72;85.05;99298.88;4987448;28;20031;-64
2021/06/13 03:09:54;;;;;;;2.65;1.20;;;;;;;10.74;85.79;99305.00;5004482;28;20026;-64
2021/06/13 03:12:21;;;;;;;1.10;1.10;;;;;;;10.76;86.25;99308.50;5004400;28;20022;-64
2021/06/13 03:14:48;;;;;;;1.40;1.20;;;;;;;10.71;85.49;99308.56;5004452;28;20369;-64
2021/06/13 03:17:16;;;;;;;1.42;1.33;;;;;;;10.48;85.69;99309.63;5004353;28;20018;-64
2021/06/13 03:19:42;;;;;;;1.10;1.10;;;;;;;10.59;86.00;99313.91;5006491;28;20191;-64
2021/06/13 03:22:08;;;;;;;1.23;1.10;;;;;;;10.45;85.75;99314.94;5008472;28;20045;-64
2021/06/13 03:24:38;;;;;;;1.30;1.20;;;;;;;10.39;85.62;99309.72;5008432;28;20197;-64
2021/06/13 03:27:05;;;;;;;1.30;1.20;;;;;;;10.30;86.26;99320.28;5008629;28;20070;-64
2021/06/13 03:29:31;;;;;;;1.30;1.20;;;;;;;10.35;86.47;99318.53;5008291;28;20023;-64
2021/06/13 03:31:57;;;;;;;2.05;1.50;;;;;;;10.35;86.83;99321.16;5008476;28;20025;-64
2021/06/13 03:34:23;;;;;;;1.85;1.00;;;;;;;10.44;86.48;99324.56;5003810;28;20019;-64
2021/06/13 03:36:49;;;;;;;1.30;1.20;;;;;;;10.49;84.90;99332.44;4988744;28;20045;-64
2021/06/13 03:39:16;;;;;;;4.20;1.23;;;;;;;10.34;85.67;99327.28;4988656;28;20034;-64
2021/06/13 03:41:42;;;;;;;1.80;1.50;;;;;;;10.36;85.76;99322.88;4988641;28;20023;-64
2021/06/13 03:44:09;;;;;;;2.45;1.60;;;;;;;10.33;85.78;99329.06;4988559;28;20023;-64
2021/06/13 03:46:36;;;;;;;2.55;1.27;;;;;;;10.33;85.54;99328.16;4988556;28;20069;-64
2021/06/13 03:49:03;;;;;;;1.30;1.20;;;;;;;10.34;85.08;99335.16;4988473;28;20026;-64
2021/06/13 03:51:29;;;;;;;1.60;1.50;;;;;;;10.27;86.46;99336.09;4988359;28;20032;-64
2021/06/13 03:53:59;;;;;;;2.00;1.58;;;;;;;10.28;87.08;99340.47;4988391;28;20026;-64
2021/06/13 03:56:27;;;;;;;1.55;1.45;;;;;;;10.26;86.72;99342.25;4988270;28;20027;-64
2021/06/13 03:58:54;;;;;;;1.30;1.20;;;;;;;10.18;86.78;99346.69;4988027;28;20225;-64
2021/06/13 04:01:22;;;;;;;1.25;1.17;;;;;;;10.22;86.90;99344.03;4988502;28;20023;-64
2021/06/13 04:03:50;;;;;;;1.40;1.30;;;;;;;10.32;85.77;99347.47;4988249;28;20194;-64
2021/06/13 04:06:18;;;;;;;3.63;1.50;;;;;;;10.28;86.00;99351.00;4988410;28;20150;-64
2021/06/13 04:08:44;;;;;;;1.70;1.42;;;;;;;10.24;86.54;99351.91;4988101;28;20033;-64
2021/06/13 04:11:11;;;;;;;1.50;1.40;;;;;;;10.36;86.98;99357.09;4988045;28;20042;-64
2021/06/13 04:13:38;;;;;;;1.73;1.27;;;;;;;10.48;85.95;99357.00;4988061;28;20221;-64
2021/06/13 04:16:06;;;;;;;1.08;0.90;;;;;;;10.51;84.38;99341.19;4988230;28;20243;-64
2021/06/13 04:18:33;;;;;;;0.90;0.90;;;;;;;10.48;83.78;99357.00;4987954;28;20022;-64
2021/06/13 04:20:59;;;;;;;2.33;1.20;;;;;;;10.32;85.58;99360.63;4987927;28;20321;-64
2021/06/13 04:23:25;;;;;;;0.88;0.88;;;;;;;10.41;85.66;99371.09;4987835;28;20217;-64
2021/06/13 04:25:51;;;;;;;1.33;1.23;;;;;;;10.38;85.88;99368.50;4987812;28;20030;-64
2021/06/13 04:28:17;;;;;;;1.67;1.02;;;;;;;10.52;85.88;99377.16;4987806;28;20022;-64
2021/06/13 04:31:10;;;;;;;2.58;1.02;;;;;;;11.12;84.95;99379.28;4987301;28;20045;-64
2021/06/13 04:33:36;;;;;;;1.05;0.90;;;;;;;12.07;80.78;99371.13;4987747;28;20229;-64
2021/06/13 04:36:02;;;;;;;1.60;0.93;;;;;;;12.98;76.52;99371.44;5004030;28;20069;-64
2021/06/13 04:38:28;;;;;;;1.08;0.98;;;;;;;13.30;73.98;99388.56;5006776;28;20022;-64
2021/06/13 04:40:53;;;;;;;4.60;1.17;;;;;;;13.56;73.85;99381.00;5007026;28;20321;-64
2021/06/13 04:43:19;;;;;;;2.65;1.00;;;;;;;14.12;71.63;99393.97;5006975;28;20082;-64
2021/06/13 04:45:44;;;;;;;1.42;0.88;;;;;;;14.35;70.62;99391.69;5006913;28;20022;-64
2021/06/13 04:48:10;;;;;;;1.85;1.15;;;;;;;14.94;68.24;99404.44;5006867;28;20274;-64
2021/06/13 04:50:40;;;;;;;0.82;0.73;;;;;;;15.45;67.14;99392.53;5006749;28;20022;-64
2021/06/13 04:53:50;;;;;;;1.15;1.00;;;;;;;16.29;65.49;99398.03;5006761;28;20072;-64
2021/06/13 04:56:46;;;;;;;2.15;0.80;;;;;;;16.88;63.33;99391.75;5006766;28;20317;-64
2021/06/13 04:59:12;;;;;;;1.52;0.95;;;;;;;17.35;62.51;99389.28;5006511;28;20037;-64
2021/06/13 05:01:41;;;;;;;1.17;0.80;;;;;;;17.49;63.26;99395.06;5006641;28;20022;-65
2021/06/13 05:04:07;;;;;;;1.95;0.90;;;;;;;18.13;61.55;99391.78;5005176;28;20085;-65
2021/06/13 05:06:32;;;;;;;1.38;0.80;;;;;;;18.56;58.86;99394.56;5006355;28;20022;-65
2021/06/13 05:08:59;;;;;;;3.30;1.00;;;;;;;18.62;59.43;99394.31;5006496;28;20041;-65
2021/06/13 05:11:24;;;;;;;0.80;0.80;;;;;;;19.01;57.55;99393.59;5006351;28;20021;-65
2021/06/13 05:13:50;;;;;;;1.17;0.70;;;;;;;19.08;58.55;99399.56;5006630;28;20094;-65
2021/06/13 05:16:15;;;;;;;0.90;0.82;;;;;;;19.31;57.95;99390.59;5006379;28;20050;-65
2021/06/13 05:18:40;;;;;;;0.88;0.80;;;;;;;19.73;56.15;99394.97;5006327;28;20309;-65
2021/06/13 05:21:06;;;;;;;3.17;1.00;;;;;;;19.59;58.89;99405.38;5006276;28;20069;-65
2021/06/13 05:23:31;;;;;;;1.40;0.80;;;;;;;20.09;56.53;99408.50;5006322;28;20028;-65
2021/06/13 05:26:00;;;;;;;2.90;0.90;;;;;;;19.95;56.94;99411.78;5006160;28;20198;-65
2021/06/13 05:28:25;;;;;;;1.08;0.90;;;;;;;20.28;55.97;99404.91;5006412;28;20305;-65
2021/06/13 05:30:52;;;;;;;0.88;0.82;;;;;;;20.51;56.26;99411.88;5006027;28;20026;-65
2021/06/13 05:33:18;;;;;;;1.70;0.80;;;;;;;20.98;53.94;99411.34;5006317;28;20317;-65
2021/06/13 05:35:43;;;;;;;2.50;1.10;;;;;;;20.72;55.29;99411.72;4989238;28;20029;-65
2021/06/13 05:38:10;;;;;;;3.60;1.10;;;;;;;20.71;52.91;99410.00;4986726;28;20027;-65
2021/06/13 05:40:37;;;;;;;1.60;0.85;;;;;;;21.11;53.33;99409.81;4986442;28;20046;-65
2021/06/13 05:43:05;;;;;;;2.10;1.10;;;;;;;21.62;52.31;99410.81;4985709;28;20027;-65
2021/06/13 05:45:32;;;;;;;1.60;0.88;;;;;;;21.42;53.04;99419.00;4986333;28;20027;-65
2021/06/13 05:47:58;;;;;;;2.55;1.20;;;;;;;21.24;53.28;99413.59;4986325;28;20023;-65
2021/06/13 05:50:24;;;;;;;2.50;1.10;;;;;;;21.65;53.97;99427.59;4986416;28;20042;-65
2021/06/13 05:52:50;;;;;;;1.80;1.05;;;;;;;22.59;51.03;99428.84;4986179;28;20093;-65
2021/06/13 05:55:18;;;;;;;3.08;1.27;;;;;;;22.11;51.22;99412.72;4986164;28;20023;-65
2021/06/13 05:57:44;;;;;;;4.53;1.17;;;;;;;22.68;49.93;99428.31;4985886;28;20045;-65
2021/06/13 06:00:13;;;;;;;7.15;1.77;;;;;;;22.57;48.33;99425.38;4986112;28;20018;-65
2021/06/13 06:02:39;;;;;;;0.95;0.82;;;;;;;23.06;46.90;99427.03;4986029;28;20022;-65
2021/06/13 06:05:06;;;;;;;1.63;1.00;;;;;;;22.84;47.32;99439.91;4997005;28;20046;-65
2021/06/13 06:07:32;;;;;;;3.25;1.20;;;;;;;23.25;46.31;99430.41;5005160;28;20336;-65
2021/06/13 06:09:57;;;;;;;4.63;1.00;;;;;;;22.81;46.32;99437.44;5005207;28;20022;-65
2021/06/13 06:12:23;;;;;;;2.13;1.20;;;;;;;22.78;45.95;99434.94;5005302;28;20098;-65
2021/06/13 06:14:49;;;;;;;2.78;1.10;;;;;;;22.37;48.60;99444.34;5005276;28;20022;-65
2021/06/13 06:17:15;;;;;;;4.85;1.38;;;;;;;22.70;47.77;99443.41;4988706;28;20025;-65
2021/06/13 06:19:41;;;;;;;3.17;1.30;;;;;;;22.92;48.69;99437.69;4985726;28;20376;-65
2021/06/13 06:22:06;;;;;;;1.85;1.10;;;;;;;23.61;45.38;99440.84;4985710;28;20090;-65
2021/06/13 06:24:32;;;;;;;3.83;1.52;;;;;;;23.16;45.49;99445.22;4985601;28;20085;-65
2021/06/13 06:26:58;;;;;;;3.28;1.20;;;;;;;23.78;43.74;99446.06;4985634;28;20029;-65
2021/06/13 06:29:24;;;;;;;5.60;1.27;;;;;;;22.64;46.20;99453.59;4985562;28;20050;-65
2021/06/13 06:31:50;;;;;;;2.60;1.10;;;;;;;23.11;46.38;99459.88;4995286;28;20018;-65
2021/06/13 06:34:16;;;;;;;1.83;1.00;;;;;;;23.72;46.27;99455.38;5004366;28;20097;-65
2021/06/13 06:36:42;;;;;;;2.88;1.50;;;;;;;23.66;45.00;99461.09;5004888;28;20061;-65
2021/06/13 06:39:08;;;;;;;1.40;0.95;;;;;;;23.49;45.55;99461.25;5004829;28;20249;-65
2021/06/13 06:41:36;;;;;;;2.85;1.20;;;;;;;23.21;45.17;99463.75;5005068;28;20085;-63
2021/06/13 06:44:02;;;;;;;2.20;1.10;;;;;;;23.66;45.31;99462.94;5004744;28;20069;-63
2021/06/13 06:46:27;;;;;;;2.55;1.30;;;;;;;23.89;43.00;99455.22;5004808;28;20018;-63
2021/06/13 06:48:53;;;;;;;2.25;1.23;;;;;;;24.62;42.89;99455.13;5004701;28;20033;-63
2021/06/13 06:51:18;;;;;;;2.08;1.30;;;;;;;23.68;42.94;99477.16;5004674;28;20081;-63
2021/06/13 06:53:44;;;;;;;3.30;1.52;;;;;;;24.16;43.28;99467.03;5004593;28;20030;-63
2021/06/13 06:56:09;;;;;;;2.05;1.10;;;;;;;24.00;43.34;99473.44;5004618;28;20022;-63
2021/06/13 06:58:35;;;;;;;3.60;1.35;;;;;;;23.98;42.99;99480.75;5004362;28;20123;-63
2021/06/13 07:01:00;;;;;;;2.08;1.20;;;;;;;24.25;41.91;99479.94;5004108;28;20022;-63
2021/06/13 07:03:25;;;;;;;3.60;1.42;;;;;;;23.79;43.58;99480.94;5004314;28;20339;-63
2021/06/13 07:05:51;;;;;;;1.67;1.00;;;;;;;24.80;40.65;99489.03;4985238;28;20026;-63
2021/06/13 07:08:16;;;;;;;2.78;1.60;;;;;;;24.72;41.26;99485.97;4999292;28;20367;-63
2021/06/13 07:10:42;;;;;;;2.80;1.33;;;;;;;24.74;42.08;99489.41;5004212;28;20045;-63
2021/06/13 07:13:07;;;;;;;2.80;1.20;;;;;;;25.34;40.72;99489.16;5004471;28;20027;-63
2021/06/13 07:15:33;;;;;;;3.28;1.25;;;;;;;25.06;41.50;99490.91;5004441;28;20134;-63
2021/06/13 07:17:58;;;;;;;2.53;1.10;;;;;;;25.65;39.66;99494.25;5004450;28;20056;-63
2021/06/13 07:20:24;;;;;;;3.25;1.42;;;;;;;24.72;41.46;99488.66;5004449;28;20061;-63
2021/06/13 07:22:49;;;;;;;1.80;1.20;;;;;;;25.37;40.50;99488.97;5004367;28;20029;-63
2021/06/13 07:25:15;;;;;;;2.55;1.20;;;;;;;25.14;41.43;99491.28;5004372;28;20089;-63
2021/06/13 07:27:41;;;;;;;2.90;1.50;;;;;;;25.71;39.79;99499.22;5004323;28;20026;-63
2021/06/13 07:30:10;;;;;;;3.72;1.00;;;;;;;25.40;38.45;99499.53;5004253;28;20033;-63
2021/06/13 07:32:36;;;;;;;2.55;1.33;;;;;;;25.14;39.29;99495.81;5004320;28;20317;-63
2021/06/13 07:35:03;;;;;;;1.98;1.30;;;;;;;24.88;38.67;99491.22;4989206;28;20257;-63
2021/06/13 07:37:28;;;;;;;2.50;1.40;;;;;;;25.09;39.64;99506.88;4984770;28;20142;-63
2021/06/13 07:39:54;;;;;;;3.17;1.40;;;;;;;24.06;41.19;99495.47;4984879;28;20022;-63
2021/06/13 07:42:19;;;;;;;3.08;1.30;;;;;;;24.51;40.08;99497.16;4984837;28;20026;-63
2021/06/13 07:44:44;;;;;;;1.95;1.25;;;;;;;25.34;38.86;99500.78;4985792;28;20332;-63
2021/06/13 07:47:10;;;;;;;2.28;1.40;;;;;;;26.01;35.97;99502.59;5004115;28;20030;-63
2021/06/13 07:49:35;;;;;;;2.65;1.27;;;;;;;25.82;37.34;99486.75;5004128;28;20029;-63
2021/06/13 07:52:01;;;;;;;3.03;1.48;;;;;;;25.53;39.58;99495.06;5000844;28;20036;-63
2021/06/13 07:54:29;;;;;;;2.17;1.10;;;;;;;26.34;36.41;99500.25;4994624;28;20022;-63
2021/06/13 07:56:54;;;;;;;2.20;1.13;;;;;;;26.38;35.57;99504.47;5003910;28;20022;-63
2021/06/13 07:59:20;;;;;;;2.58;1.20;;;;;;;26.54;34.50;99500.59;4989671;28;20122;-63
2021/06/13 08:01:45;;;;;;;2.58;1.20;;;;;;;26.59;35.74;99506.53;4984556;28;20023;-63
2021/06/13 08:04:11;;;;;;;2.15;1.20;;;;;;;25.97;37.75;99499.22;4992222;28;20022;-63
2021/06/13 08:06:36;;;;;;;1.38;1.00;;;;;;;26.79;35.66;99508.72;5007513;28;20045;-63
2021/06/13 08:09:02;;;;;;;3.47;1.20;;;;;;;26.84;35.68;99498.47;5007677;28;20329;-63
2021/06/13 08:11:29;;;;;;;1.40;1.13;;;;;;;27.04;37.07;99497.88;5007568;28;20018;-63
2021/06/13 08:13:55;;;;;;;3.08;1.25;;;;;;;27.21;36.91;99493.97;5005772;28;20379;-63
2021/06/13 08:16:20;;;;;;;2.53;1.27;;;;;;;27.10;37.58;99496.56;5007480;28;20022;-63
2021/06/13 08:18:46;;;;;;;3.42;1.30;;;;;;;27.15;36.77;99497.94;5007454;28;20254;-63
2021/06/13 08:21:11;;;;;;;3.25;1.00;;;;;;;27.07;35.64;99497.66;5007387;28;20190;-63
2021/06/13 08:23:36;;;;;;;2.80;1.23;;;;;;;25.96;37.54;99488.50;5007351;28;20217;-63
2021/06/13 08:26:02;;;;;;;1.02;0.93;;;;;;;27.32;36.65;99491.34;5007261;28;20090;-64
2021/06/13 08:28:28;;;;;;;2.08;1.20;;;;;;;27.75;33.82;99495.28;5007218;28;20025;-63
2021/06/13 08:30:53;;;;;;;2.35;1.20;;;;;;;27.09;34.66;99494.84;5006840;28;20311;-63
2021/06/13 08:33:19;;;;;;;3.58;1.27;;;;;;;25.65;37.66;99488.88;4989126;28;20030;-63
2021/06/13 08:35:44;;;;;;;3.00;1.23;;;;;;;24.79;38.55;99487.28;4988896;28;20023;-63
2021/06/13 08:38:10;;;;;;;2.67;1.10;;;;;;;26.33;37.61;99485.91;4987632;28;20344;-63
2021/06/13 08:40:36;;;;;;;1.77;1.00;;;;;;;27.38;33.87;99500.84;4987541;28;20022;-63
2021/06/13 08:43:02;;;;;;;4.28;1.00;;;;;;;27.36;32.10;99498.25;4987464;28;20030;-63
2021/06/13 08:45:31;;;;;;;1.60;0.85;;;;;;;26.43;34.52;99488.81;4987544;28;20027;-63
2021/06/13 08:47:58;;;;;;;1.88;0.98;;;;;;;26.57;34.96;99491.41;4987408;28;20221;-63
2021/06/13 08:50:24;;;;;;;1.60;0.90;;;;;;;27.17;31.81;99493.31;4987536;28;20014;-63
2021/06/13 08:52:51;;;;;;;2.60;0.90;;;;;;;26.93;31.52;99499.63;4987603;28;20023;-63
2021/06/13 08:55:17;;;;;;;2.03;1.00;;;;;;;27.47;33.61;99494.75;4987317;28;20375;-63
2021/06/13 08:57:43;;;;;;;1.98;0.90;;;;;;;27.73;32.06;99482.84;4987003;28;20029;-63
2021/06/13 09:00:15;;;;;;;1.80;0.80;;;;;;;28.50;29.97;99484.00;4987291;28;20221;-63
2021/06/13 09:02:41;;;;;;;2.03;0.95;;;;;;;28.29;32.28;99480.25;4987378;28;20023;-63
2021/06/13 09:05:09;;;;;;;1.63;1.00;;;;;;;28.96;29.69;99482.06;4995648;28;20220;-63
2021/06/13 09:07:34;;;;;;;1.33;0.70;;;;;;;29.08;31.78;99464.81;5006336;28;20028;-63
2021/06/13 09:10:11;;;;;;;1.77;0.82;;;;;;;29.53;31.57;99475.59;5006436;28;20045;-63
2021/06/13 09:12:37;;;;;;;2.17;0.98;;;;;;;29.18;27.65;99479.38;5006496;28;20054;-63
2021/06/13 09:15:05;;;;;;;1.73;1.05;;;;;;;28.48;29.39;99471.56;5006420;28;20077;-63
2021/06/13 09:17:30;;;;;;;1.15;0.63;;;;;;;28.59;30.10;99482.41;5005504;28;20027;-63
2021/06/13 09:20:15;;;;;;;1.73;0.75;;;;;;;28.31;30.88;99480.13;5006315;28;20026;-63
2021/06/13 09:22:42;;;;;;;1.55;0.60;;;;;;;28.18;28.21;99482.91;5006299;28;20019;-63
2021/06/13 09:25:09;;;;;;;1.23;0.70;;;;;;;27.71;30.88;99477.53;5006197;28;20026;-63
2021/06/13 09:27:36;;;;;;;3.67;0.82;;;;;;;28.87;30.59;99477.38;5006197;28;20194;-63
2021/06/13 09:30:02;;;;;;;0.98;0.60;;;;;;;29.51;31.12;99483.00;5006049;28;20097;-64
2021/06/13 09:32:28;;;;;;;2.45;0.93;;;;;;;29.17;31.08;99483.06;5006162;28;20041;-63
2021/06/13 09:35:21;;;;;;;2.95;0.73;;;;;;;29.06;28.96;99483.06;4987832;28;20030;-64
2021/06/13 09:38:05;;;;;;;1.02;0.57;;;;;;;28.16;29.69;99478.63;4986624;28;20066;-64
2021/06/13 09:40:31;;;;;;;0.95;0.68;;;;;;;28.82;30.60;99485.00;4986500;28;20026;-64
2021/06/13 09:42:59;;;;;;;1.88;0.80;;;;;;;29.46;29.71;99485.22;4986438;28;20085;-64
2021/06/13 09:45:24;;;;;;;1.77;0.88;;;;;;;28.59;28.37;99482.41;4986467;28;20090;-63
2021/06/13 09:48:00;;;;;;;2.05;0.90;;;;;;;28.10;31.73;99485.38;4986469;28;20030;-63
2021/06/13 09:50:51;;;;;;;3.50;0.70;;;;;;;28.81;30.61;99488.72;4986210;28;20246;-63
2021/06/13 09:53:22;;;;;;;1.65;0.80;;;;;;;29.06;30.71;99488.50;4986532;28;20022;-63
2021/06/13 09:56:05;;;;;;;1.83;0.68;;;;;;;28.86;30.03;99483.78;4986213;28;20023;-63
2021/06/13 09:58:32;;;;;;;1.48;0.70;;;;;;;29.40;29.29;99485.72;4985936;28;20066;-63
2021/06/13 10:01:08;;;;;;;1.48;0.60;;;;;;;29.05;28.51;99478.63;4986113;28;20086;-63
2021/06/13 10:03:39;;;;;;;1.15;0.65;;;;;;;29.55;29.41;99481.75;4993148;28;20018;-63
2021/06/13 10:06:06;;;;;;;1.40;0.70;;;;;;;28.80;29.98;99484.28;5005704;28;20068;-63
2021/06/13 10:08:32;;;;;;;2.90;0.80;;;;;;;28.07;31.43;99479.31;5005414;28;20049;-63
2021/06/13 10:10:58;;;;;;;1.75;0.80;;;;;;;28.97;30.60;99472.94;5005540;28;20029;-63
2021/06/13 10:14:09;;;;;;;1.50;0.80;;;;;;;28.60;31.29;99482.28;5005578;28;20105;-63
2021/06/13 10:16:41;;;;;;;2.63;0.90;;;;;;;29.38;30.24;99471.44;4939623;29;20031;-63
2021/06/13 10:19:14;;;;;;;2.20;0.80;;;;;;;29.26;30.59;99475.16;4945612;29;20032;-63
2021/06/13 10:21:46;;;;;;;1.00;0.68;;;;;;;28.66;29.99;99479.09;4945571;29;20032;-63
2021/06/13 10:24:22;;;;;;;2.55;0.70;;;;;;;28.08;31.56;99471.09;4945542;29;20099;-63
2021/06/13 10:26:54;;;;;;;2.55;0.95;;;;;;;28.78;32.27;99469.13;4945557;29;20039;-63
2021/06/13 10:29:20;;;;;;;1.63;0.75;;;;;;;28.49;33.91;99474.16;4945240;29;20031;-63
2021/06/13 10:31:51;;;;;;;1.45;0.70;;;;;;;28.92;29.24;99463.47;4945284;29;20085;-63
2021/06/13 10:34:18;;;;;;;1.63;0.70;;;;;;;28.67;31.48;99469.97;4945328;29;20103;-63
2021/06/13 10:36:44;;;;;;;2.55;0.80;;;;;;;29.10;30.04;99471.00;4945278;29;20027;-63
2021/06/13 10:39:14;;;;;;;1.33;0.63;;;;;;;28.46;34.42;99471.69;4945262;29;20091;-63
2021/06/13 10:41:40;;;;;;;0.73;0.45;;;;;;;28.48;29.91;99469.75;4945006;29;20071;-63
2021/06/13 10:44:10;;;;;;;1.65;0.60;;;;;;;28.08;30.19;99465.66;4926226;29;20095;-63
2021/06/13 10:46:37;;;;;;;0.90;0.52;;;;;;;28.11;28.22;99467.25;4953987;28;20106;-63
2021/06/13 10:49:04;;;;;;;0.90;0.45;;;;;;;28.16;28.34;99474.03;4985262;28;20081;-63
2021/06/13 10:51:36;;;;;;;1.60;0.60;;;;;;;28.29;29.01;99464.00;4985240;28;20023;-63
2021/06/13 10:54:20;;;;;;;0.82;0.50;;;;;;;28.15;27.87;99461.50;4985277;28;20031;-63
2021/06/13 10:56:46;;;;;;;1.27;0.50;;;;;;;28.04;31.55;99464.19;4985445;28;20034;-63
2021/06/13 10:59:15;;;;;;;1.23;0.43;;;;;;;27.60;30.62;99449.56;5002059;28;20034;-63
2021/06/13 11:02:10;;;;;;;0.73;0.47;;;;;;;27.94;29.03;99463.19;4989578;28;20175;-64
2021/06/13 11:04:45;;;;;;;1.95;0.70;;;;;;;28.31;30.00;99459.31;4976292;28;20041;-63
2021/06/13 11:07:12;;;;;;;0.80;0.50;;;;;;;27.66;30.16;99463.50;4984333;28;20376;-63
2021/06/13 11:10:16;;;;;;;1.40;0.70;;;;;;;28.10;30.61;99462.84;4984307;28;20023;-63
2021/06/13 11:13:05;;;;;;;1.27;0.70;;;;;;;28.30;30.84;99463.00;4984284;28;20045;-63
2021/06/13 11:15:41;;;;;;;0.82;0.60;;;;;;;27.95;32.68;99464.88;4984469;28;20026;-63
2021/06/13 11:18:15;;;;;;;1.23;0.60;;;;;;;26.58;33.06;99460.75;4984480;28;20027;-63
2021/06/13 11:21:04;;;;;;;1.58;0.60;;;;;;;26.98;33.28;99462.31;4984185;28;20069;-63
2021/06/13 11:23:29;;;;;;;1.67;0.60;;;;;;;27.16;32.96;99455.56;4984222;28;20019;-63
2021/06/13 11:25:57;;;;;;;1.50;0.52;;;;;;;27.50;34.70;99452.13;4984097;28;20324;-63
2021/06/13 11:28:27;;;;;;;1.13;0.70;;;;;;;27.30;33.11;99460.84;4984092;28;20217;-63
2021/06/13 11:31:00;;;;;;;1.33;0.70;;;;;;;27.37;33.42;99451.31;4990661;28;20018;-63
2021/06/13 11:33:32;;;;;;;2.33;1.10;;;;;;;27.50;34.81;99446.72;5003493;28;20069;-63
2021/06/13 11:35:58;;;;;;;0.82;0.70;;;;;;;27.21;32.61;99450.69;5003380;28;20032;-63
2021/06/13 11:38:25;;;;;;;3.28;0.70;;;;;;;27.08;35.16;99449.84;5003398;28;20030;-63
2021/06/13 11:41:04;;;;;;;1.38;0.60;;;;;;;26.80;34.42;99455.56;5005633;28;20030;-63